Terminal Aerodrome Forecast
Issued by NWS

Current Version | Previous Version | Graphics & Text | Print | Product List | Glossary On
Versions: 1 2 3 4 5 6 7 8 9 10 11 12 13 14 15 16 17 18 19 20 21 22 23 24 25 26 27 28 29 30 31 32 33 34 35 36 37 38 39 40 41 42 43 44 45 46 47 48 49 50
000
FTUS41 KRNK 061136
TAFLWB
TAF
KLWB 061136Z 0612/0712 00000KT P6SM VCSH SCT013 OVC035
      TEMPO 0614/0616 2SM SHRA BR OVC013
     FM061800 26005KT P6SM -SHRA OVC040
     FM070000 00000KT P6SM BKN045
     FM070800 00000KT 2SM BR SCT003=

USA.gov is the U.S. government's official web portal to all federal, state and local government web resources and services.